Time;durP1;ratioP1;P1;durP2;ratioP2;P2;SDS_P1;SDS_P2;PMS_P1;PMS_P2;Temp;Humidity;BMP_temperature;BMP_pressure;BME280_temperature;BME280_humidity;BME280_pressure;Samples;Min_cycle;Max_cycle;Signal;HPM_P1;HPM_P2
2024/01/22 00:02:13;;;;;;;2.67;1.45;;;6.60;99.90;;;;;;5000023;28;20509;-77
2024/01/22 00:04:40;;;;;;;0.65;0.65;;;6.60;99.90;;;;;;4998350;28;20073;-77
2024/01/22 00:07:15;;;;;;;0.77;0.77;;;6.60;99.90;;;;;;5018134;28;20029;-78
2024/01/22 00:09:41;;;;;;;;;;;6.60;99.90;;;;;;5018334;28;20522;-77
2024/01/22 00:12:07;;;;;;;0.40;0.40;;;6.50;99.90;;;;;;5013597;28;19927;-76
2024/01/22 00:14:34;;;;;;;0.95;0.95;;;6.50;99.90;;;;;;5008514;28;20042;-77
2024/01/22 00:16:59;;;;;;;;;;;6.50;99.90;;;;;;5000167;28;20041;-77
2024/01/22 00:19:25;;;;;;;0.40;0.40;;;6.60;99.90;;;;;;5000702;28;19976;-75
2024/01/22 00:21:51;;;;;;;0.50;0.50;;;6.70;99.90;;;;;;5017258;28;20095;-78
2024/01/22 00:24:24;;;;;;;0.77;0.77;;;6.70;99.90;;;;;;4982203;28;20142;-82
2024/01/22 00:26:49;;;;;;;0.52;0.52;;;6.70;99.90;;;;;;5015171;28;20064;-82
2024/01/22 00:29:16;;;;;;;0.60;0.60;;;6.70;99.90;;;;;;5014964;28;20045;-82
2024/01/22 00:31:47;;;;;;;0.50;0.50;;;6.70;99.90;;;;;;5020300;28;20148;-81
2024/01/22 00:34:14;;;;;;;0.60;0.60;;;6.80;99.90;;;;;;5019543;28;20048;-83
2024/01/22 00:36:40;;;;;;;0.50;0.50;;;6.80;99.90;;;;;;5031911;28;20084;-82
2024/01/22 00:39:11;;;;;;;0.50;0.50;;;6.70;99.90;;;;;;5032906;28;20034;-81
2024/01/22 00:41:38;;;;;;;0.50;0.50;;;6.80;99.90;;;;;;5034877;28;20045;-81
2024/01/22 00:44:09;;;;;;;0.70;0.70;;;6.80;99.90;;;;;;5039896;28;20044;-81
2024/01/22 00:46:51;;;;;;;0.50;0.50;;;6.90;99.90;;;;;;5048986;28;20086;-81
2024/01/22 00:49:18;;;;;;;0.75;0.75;;;6.90;99.90;;;;;;5045997;28;20049;-83
2024/01/22 00:51:45;;;;;;;0.63;0.63;;;7.00;99.90;;;;;;5015865;28;20631;-80
2024/01/22 00:54:11;;;;;;;0.40;0.40;;;7.00;99.90;;;;;;5045217;28;20044;-82
2024/01/22 00:56:36;;;;;;;0.68;0.68;;;7.10;99.90;;;;;;5039173;28;20051;-81
2024/01/22 00:59:11;;;;;;;0.60;0.60;;;7.20;99.90;;;;;;5057187;28;20126;-81
2024/01/22 01:01:42;;;;;;;0.70;0.70;;;7.20;99.90;;;;;;5040839;28;20067;-80
2024/01/22 01:04:12;;;;;;;0.40;0.40;;;7.00;99.90;;;;;;5053425;28;20593;-81
2024/01/22 01:06:43;;;;;;;0.50;0.50;;;7.00;99.90;;;;;;5040541;28;20101;-81
2024/01/22 01:09:13;;;;;;;0.70;0.70;;;7.00;99.90;;;;;;5061249;28;20055;-79
2024/01/22 01:11:41;;;;;;;0.47;0.47;;;7.10;99.90;;;;;;5056127;28;20152;-80
2024/01/22 01:14:08;;;;;;;0.50;0.50;;;7.20;99.90;;;;;;5054610;28;20484;-80
2024/01/22 01:16:38;;;;;;;1.23;1.23;;;7.20;99.90;;;;;;5052897;28;20517;-79
2024/01/22 01:19:03;;;;;;;0.88;0.82;;;7.20;99.90;;;;;;5041159;28;20112;-80
2024/01/22 01:21:31;;;;;;;0.93;0.93;;;7.10;99.90;;;;;;5039960;28;20061;-81
2024/01/22 01:24:00;;;;;;;0.98;0.93;;;7.20;99.90;;;;;;5052274;28;20036;-81
2024/01/22 01:26:43;;;;;;;0.47;0.47;;;7.20;99.90;;;;;;5053429;28;20378;-81
2024/01/22 01:29:09;;;;;;;0.80;0.80;;;7.20;99.90;;;;;;5033724;28;20123;-81
2024/01/22 01:31:44;;;;;;;0.55;0.55;;;7.30;99.90;;;;;;5054082;28;20512;-80
2024/01/22 01:34:11;;;;;;;0.57;0.57;;;7.20;99.90;;;;;;5054981;28;20044;-80
2024/01/22 01:36:37;;;;;;;0.63;0.63;;;7.20;99.90;;;;;;5043842;28;20179;-81
2024/01/22 01:39:10;;;;;;;0.40;0.40;;;7.30;99.90;;;;;;5057644;28;20184;-81
2024/01/22 01:41:51;;;;;;;0.60;0.60;;;7.40;99.90;;;;;;5029434;28;20036;-80
2024/01/22 01:44:19;;;;;;;0.47;0.47;;;7.40;99.90;;;;;;5039788;28;20099;-79
2024/01/22 01:46:45;;;;;;;0.60;0.60;;;7.50;99.90;;;;;;5036270;28;20514;-81
2024/01/22 01:49:12;;;;;;;0.65;0.65;;;7.60;99.90;;;;;;5057947;28;20072;-81
2024/01/22 01:51:39;;;;;;;0.73;0.73;;;7.60;99.90;;;;;;5057993;28;20047;-80
2024/01/22 01:54:07;;;;;;;2.90;0.95;;;7.70;99.90;;;;;;5036813;28;20160;-78
2024/01/22 01:56:33;;;;;;;0.95;0.95;;;7.70;99.90;;;;;;5057603;28;20044;-81
2024/01/22 01:59:05;;;;;;;0.60;0.60;;;7.80;99.90;;;;;;5050691;28;20045;-80
2024/01/22 02:01:30;;;;;;;0.50;0.50;;;7.90;99.90;;;;;;5020679;28;20564;-80
2024/01/22 02:03:56;;;;;;;0.57;0.55;;;7.90;99.90;;;;;;5055462;28;20087;-80
2024/01/22 02:06:22;;;;;;;0.60;0.60;;;8.00;99.90;;;;;;5005702;28;20132;-82
2024/01/22 02:08:53;;;;;;;0.40;0.40;;;8.10;99.90;;;;;;5035933;28;20040;-79
2024/01/22 02:11:22;;;;;;;1.95;1.85;;;8.00;99.90;;;;;;5051222;28;20096;-80
2024/01/22 02:13:49;;;;;;;0.60;0.60;;;8.00;99.90;;;;;;5036606;28;20052;-79
2024/01/22 02:16:15;;;;;;;1.05;1.05;;;8.00;99.90;;;;;;5051733;28;20399;-81
2024/01/22 02:18:41;;;;;;;0.70;0.70;;;8.10;99.90;;;;;;5033502;28;20490;-82
2024/01/22 02:21:13;;;;;;;0.68;0.68;;;8.10;99.90;;;;;;5056561;28;20057;-81
2024/01/22 02:23:39;;;;;;;2.10;0.70;;;8.00;99.90;;;;;;5036044;28;20032;-84
2024/01/22 02:26:05;;;;;;;2.05;0.98;;;8.00;99.90;;;;;;5049375;28;20049;-81
2024/01/22 02:28:38;;;;;;;0.50;0.50;;;8.00;99.90;;;;;;5056051;28;20068;-81
2024/01/22 02:31:10;;;;;;;2.38;1.00;;;8.00;99.90;;;;;;5056766;28;20577;-83
2024/01/22 02:33:45;;;;;;;0.43;0.43;;;8.00;99.90;;;;;;5038982;28;20056;-83
2024/01/22 02:36:11;;;;;;;0.50;0.50;;;8.00;99.90;;;;;;5035884;28;20405;-81
2024/01/22 02:38:37;;;;;;;0.50;0.50;;;8.10;99.90;;;;;;5050652;28;20037;-83
2024/01/22 02:41:02;;;;;;;0.60;0.60;;;8.20;99.90;;;;;;5041021;28;20044;-81
2024/01/22 02:43:28;;;;;;;0.47;0.47;;;8.20;99.90;;;;;;5040768;28;20123;-82
2024/01/22 02:45:58;;;;;;;0.70;0.70;;;8.20;99.90;;;;;;5038378;28;20745;-83
2024/01/22 02:48:24;;;;;;;0.55;0.55;;;8.20;99.90;;;;;;5040687;28;20052;-82
2024/01/22 02:50:52;;;;;;;0.45;0.45;;;8.20;99.90;;;;;;5024279;28;20551;-82
2024/01/22 02:53:20;;;;;;;0.47;0.47;;;8.30;99.90;;;;;;5026281;28;20053;-82
2024/01/22 02:55:46;;;;;;;0.50;0.50;;;8.30;99.90;;;;;;5008257;28;20040;-83
2024/01/22 02:58:12;;;;;;;0.88;0.88;;;8.30;99.90;;;;;;5006801;28;20041;-82
2024/01/22 03:00:37;;;;;;;0.65;0.65;;;8.40;99.90;;;;;;5030250;28;20071;-83
2024/01/22 03:03:04;;;;;;;0.55;0.55;;;8.40;99.90;;;;;;5036491;28;20040;-82
2024/01/22 03:05:36;;;;;;;0.70;0.70;;;8.40;99.90;;;;;;5044064;28;20512;-82
2024/01/22 03:08:03;;;;;;;0.55;0.55;;;8.40;99.90;;;;;;5041677;28;20040;-83
2024/01/22 03:10:30;;;;;;;0.70;0.70;;;8.40;99.90;;;;;;5060032;28;20501;-83
2024/01/22 03:12:56;;;;;;;;;;;8.40;99.90;;;;;;5055627;28;20295;-81
2024/01/22 03:15:21;;;;;;;1.13;1.02;;;8.40;99.90;;;;;;5036922;28;20031;-82
2024/01/22 03:17:47;;;;;;;0.90;0.90;;;8.40;99.90;;;;;;5060397;28;20040;-85
2024/01/22 03:20:14;;;;;;;0.50;0.50;;;8.40;99.90;;;;;;5012585;28;20048;-85
2024/01/22 03:22:40;;;;;;;0.40;0.40;;;8.40;99.90;;;;;;5062863;28;20436;-82
2024/01/22 03:25:12;;;;;;;0.50;0.50;;;8.40;99.90;;;;;;5040452;28;20037;-82
2024/01/22 03:27:45;;;;;;;0.60;0.60;;;8.50;99.90;;;;;;5018214;28;20090;-82
2024/01/22 03:30:14;;;;;;;0.70;0.70;;;8.50;99.90;;;;;;5051027;28;20037;-80
2024/01/22 03:32:40;;;;;;;0.43;0.43;;;8.50;99.90;;;;;;5051369;28;20049;-80
2024/01/22 03:35:07;;;;;;;0.50;0.50;;;8.40;99.90;;;;;;5051382;28;20091;-80
2024/01/22 03:37:40;;;;;;;0.50;0.50;;;8.40;99.90;;;;;;5031502;28;20525;-83
2024/01/22 03:40:08;;;;;;;0.40;0.40;;;8.40;99.90;;;;;;5034049;28;20033;-82
2024/01/22 03:42:34;;;;;;;0.50;0.50;;;8.40;99.90;;;;;;5005712;28;20100;-82
2024/01/22 03:44:59;;;;;;;0.50;0.50;;;8.40;99.90;;;;;;5040340;28;20040;-82
2024/01/22 03:47:27;;;;;;;0.40;0.40;;;8.30;99.90;;;;;;5036518;28;20065;-82
2024/01/22 03:49:53;;;;;;;0.50;0.50;;;8.30;99.90;;;;;;5042590;28;20071;-82
2024/01/22 03:52:19;;;;;;;1.17;0.80;;;8.40;99.90;;;;;;5041314;28;20490;-83
2024/01/22 03:54:47;;;;;;;0.50;0.50;;;8.40;99.90;;;;;;5038477;28;20501;-83
2024/01/22 03:57:14;;;;;;;0.50;0.50;;;8.40;99.90;;;;;;5058757;28;20272;-82
2024/01/22 03:59:41;;;;;;;0.40;0.40;;;8.40;99.90;;;;;;5057994;28;20486;-83
2024/01/22 04:02:09;;;;;;;0.40;0.40;;;8.40;99.90;;;;;;5021697;28;20093;-83
2024/01/22 04:04:39;;;;;;;0.50;0.50;;;8.50;99.90;;;;;;5056656;28;20041;-85
2024/01/22 04:07:10;;;;;;;0.40;0.40;;;8.50;99.90;;;;;;5044396;28;20091;-82
2024/01/22 04:09:51;;;;;;;0.95;0.95;;;8.50;99.90;;;;;;5023129;28;20083;-84
2024/01/22 04:12:17;;;;;;;0.52;0.52;;;9.20;99.90;;;;;;5037119;28;20068;-83
2024/01/22 04:14:49;;;;;;;0.60;0.60;;;8.50;99.90;;;;;;5024727;28;20071;-81
2024/01/22 04:17:15;;;;;;;0.40;0.40;;;8.50;99.90;;;;;;5023385;28;20060;-81
2024/01/22 04:19:42;;;;;;;0.55;0.55;;;8.50;99.90;;;;;;5024360;28;20029;-83
2024/01/22 04:22:11;;;;;;;0.50;0.50;;;8.60;99.90;;;;;;5037796;28;20395;-82
2024/01/22 04:24:37;;;;;;;0.40;0.40;;;8.50;99.90;;;;;;5054689;28;20142;-83
2024/01/22 04:27:04;;;;;;;0.40;0.40;;;8.60;99.90;;;;;;5056864;28;20032;-83
2024/01/22 04:29:32;;;;;;;0.35;0.35;;;8.70;99.90;;;;;;5020788;28;20083;-83
2024/01/22 04:31:59;;;;;;;0.40;0.40;;;8.40;99.90;;;;;;5042850;28;20044;-83
2024/01/22 04:34:35;;;;;;;0.50;0.50;;;8.70;99.90;;;;;;5053332;28;20037;-84
2024/01/22 04:37:01;;;;;;;0.43;0.43;;;8.70;99.90;;;;;;5036339;28;20291;-82
2024/01/22 04:39:28;;;;;;;0.50;0.50;;;8.80;99.90;;;;;;5024488;28;20078;-81
2024/01/22 04:41:53;;;;;;;0.40;0.40;;;8.80;99.90;;;;;;5052311;28;20048;-81
2024/01/22 04:44:28;;;;;;;0.57;0.57;;;8.80;99.90;;;;;;5023140;28;20047;-83
2024/01/22 04:46:56;;;;;;;0.55;0.55;;;8.80;99.90;;;;;;5038627;28;20050;-83
2024/01/22 04:49:23;;;;;;;0.50;0.50;;;8.90;99.90;;;;;;5036693;28;20576;-82
2024/01/22 04:51:50;;;;;;;0.50;0.50;;;8.90;99.90;;;;;;5006994;28;20052;-82
2024/01/22 04:54:16;;;;;;;0.40;0.40;;;8.90;99.90;;;;;;5013569;28;20038;-83
2024/01/22 04:56:47;;;;;;;0.40;0.40;;;8.90;99.90;;;;;;5017825;28;20041;-83
2024/01/22 04:59:14;;;;;;;0.55;0.55;;;9.00;99.90;;;;;;5013726;28;20041;-81
2024/01/22 05:01:42;;;;;;;0.40;0.40;;;9.00;99.90;;;;;;5012064;28;20110;-82
2024/01/22 05:04:09;;;;;;;0.35;0.35;;;9.00;99.90;;;;;;4999225;28;20084;-83
2024/01/22 05:06:35;;;;;;;0.47;0.47;;;9.00;99.90;;;;;;5009118;28;20196;-82
2024/01/22 05:09:01;;;;;;;0.40;0.40;;;9.10;99.90;;;;;;5013134;28;20137;-83
2024/01/22 05:11:27;;;;;;;0.70;0.70;;;9.10;99.90;;;;;;5016570;28;20046;-83
2024/01/22 05:14:05;;;;;;;0.40;0.40;;;9.10;99.90;;;;;;4995842;28;20064;-82
2024/01/22 05:16:33;;;;;;;0.60;0.60;;;9.20;99.90;;;;;;5014885;28;20041;-84
2024/01/22 05:18:59;;;;;;;0.50;0.50;;;9.20;99.90;;;;;;5013865;28;20057;-82
2024/01/22 05:21:26;;;;;;;0.40;0.40;;;9.30;99.90;;;;;;5016646;28;20046;-82
2024/01/22 05:24:00;;;;;;;0.50;0.50;;;8.30;99.90;;;;;;5021074;28;20056;-83
2024/01/22 05:26:26;;;;;;;0.43;0.43;;;9.40;99.90;;;;;;4998018;28;20148;-82
2024/01/22 05:28:57;;;;;;;0.82;0.82;;;9.40;99.90;;;;;;5015726;28;20045;-81
2024/01/22 05:31:23;;;;;;;0.50;0.50;;;9.40;99.90;;;;;;4998565;28;20046;-83
2024/01/22 05:33:49;;;;;;;0.40;0.40;;;9.40;99.90;;;;;;5016642;28;20048;-84
2024/01/22 05:36:19;;;;;;;0.50;0.50;;;9.50;99.90;;;;;;5015573;28;20041;-83
2024/01/22 05:38:44;;;;;;;0.50;0.50;;;9.50;99.90;;;;;;5014304;28;20170;-80
2024/01/22 05:41:10;;;;;;;0.50;0.50;;;9.70;99.90;;;;;;5013498;28;20084;-82
2024/01/22 05:43:36;;;;;;;0.60;0.60;;;9.70;99.90;;;;;;5011048;28;20030;-80
2024/01/22 05:46:03;;;;;;;0.70;0.70;;;9.80;99.90;;;;;;5017663;28;20041;-82
2024/01/22 05:48:38;;;;;;;0.50;0.50;;;9.90;99.90;;;;;;5051968;28;20045;-84
2024/01/22 05:51:04;;;;;;;0.50;0.50;;;9.90;99.90;;;;;;5041770;28;20582;-83
2024/01/22 05:53:29;;;;;;;0.50;0.50;;;10.00;99.90;;;;;;5028108;28;20051;-80
2024/01/22 05:55:56;;;;;;;0.40;0.40;;;10.10;99.90;;;;;;5051347;28;20072;-79
2024/01/22 05:58:22;;;;;;;0.40;0.40;;;10.20;99.90;;;;;;5053003;28;20048;-79
2024/01/22 06:00:48;;;;;;;0.40;0.40;;;10.30;99.90;;;;;;5036935;28;20852;-83
2024/01/22 06:03:14;;;;;;;0.30;0.30;;;10.30;99.90;;;;;;5019616;28;20041;-83
2024/01/22 06:05:40;;;;;;;0.82;0.82;;;10.30;99.90;;;;;;5038143;28;20521;-82
2024/01/22 06:08:07;;;;;;;;;;;10.40;99.90;;;;;;5053472;28;20115;-81
2024/01/22 06:10:36;;;;;;;0.45;0.45;;;10.40;99.90;;;;;;5049431;28;20374;-81
2024/01/22 06:13:02;;;;;;;0.30;0.30;;;10.40;99.90;;;;;;5054065;28;20032;-83
2024/01/22 06:15:28;;;;;;;0.40;0.40;;;10.30;99.90;;;;;;5037666;28;20476;-85
2024/01/22 06:17:57;;;;;;;0.30;0.30;;;10.20;99.90;;;;;;5035611;28;20037;-82
2024/01/22 06:20:22;;;;;;;1.20;0.70;;;10.10;99.90;;;;;;4991565;28;20063;-82
2024/01/22 06:22:48;;;;;;;0.40;0.40;;;10.00;99.90;;;;;;4996277;28;20048;-82
2024/01/22 06:25:15;;;;;;;0.40;0.40;;;10.00;99.90;;;;;;5029822;28;20043;-83
2024/01/22 06:27:44;;;;;;;0.47;0.47;;;10.00;99.90;;;;;;5043671;28;20571;-83
2024/01/22 06:30:12;;;;;;;0.75;0.75;;;10.00;99.90;;;;;;5015724;28;20154;-84
2024/01/22 06:32:43;;;;;;;0.50;0.50;;;10.10;99.90;;;;;;5027748;28;20040;-85
2024/01/22 06:35:09;;;;;;;0.85;0.80;;;10.10;99.90;;;;;;5039910;28;20040;-81
2024/01/22 06:37:35;;;;;;;;;;;10.00;99.90;;;;;;5024448;28;20086;-86
2024/01/22 06:40:01;;;;;;;0.50;0.50;;;10.00;99.90;;;;;;5024725;28;19920;-85
2024/01/22 06:42:27;;;;;;;0.82;0.82;;;10.00;99.90;;;;;;5003046;28;20041;-83
2024/01/22 06:44:53;;;;;;;0.50;0.50;;;10.00;99.90;;;;;;5038832;28;20072;-85
2024/01/22 06:47:25;;;;;;;0.40;0.40;;;10.00;99.90;;;;;;4989016;28;20106;-83
2024/01/22 06:49:52;;;;;;;0.50;0.50;;;10.00;99.90;;;;;;5017033;28;20040;-86
2024/01/22 06:52:18;;;;;;;0.40;0.40;;;10.00;99.90;;;;;;5027901;28;20051;-84
2024/01/22 06:54:44;;;;;;;0.45;0.45;;;10.00;99.90;;;;;;5013764;28;20053;-82
2024/01/22 06:57:09;;;;;;;0.52;0.52;;;10.00;99.90;;;;;;5046841;28;20119;-83
2024/01/22 06:59:35;;;;;;;0.70;0.70;;;10.00;99.90;;;;;;5024629;28;20072;-81
2024/01/22 07:02:01;;;;;;;0.60;0.60;;;10.00;99.90;;;;;;5033379;28;20127;-81
2024/01/22 07:04:26;;;;;;;0.65;0.65;;;10.00;99.90;;;;;;5024880;28;20065;-82
2024/01/22 07:06:52;;;;;;;0.50;0.50;;;10.10;99.90;;;;;;5002538;28;20076;-82
2024/01/22 07:09:18;;;;;;;0.73;0.73;;;10.00;99.90;;;;;;4994766;28;20041;-82
2024/01/22 07:11:44;;;;;;;0.43;0.43;;;10.00;99.90;;;;;;4993242;28;20040;-81
2024/01/22 07:14:11;;;;;;;0.45;0.45;;;10.00;99.90;;;;;;5008203;28;20044;-82
2024/01/22 07:16:38;;;;;;;0.40;0.40;;;10.00;99.90;;;;;;5027138;28;20171;-81
2024/01/22 07:19:04;;;;;;;0.50;0.50;;;10.00;99.90;;;;;;4966219;28;20092;-86
2024/01/22 07:21:30;;;;;;;0.70;0.70;;;10.00;99.90;;;;;;5020576;28;20484;-83
2024/01/22 07:23:55;;;;;;;0.38;0.38;;;10.00;99.90;;;;;;4944928;28;20414;-81
2024/01/22 07:26:21;;;;;;;0.40;0.40;;;9.90;99.90;;;;;;4993814;28;20573;-81
2024/01/22 07:28:48;;;;;;;0.43;0.43;;;10.00;99.90;;;;;;5000527;28;20372;-81
2024/01/22 07:31:15;;;;;;;0.40;0.40;;;10.00;99.90;;;;;;5048699;28;20057;-82
2024/01/22 07:33:41;;;;;;;0.60;0.60;;;10.00;99.90;;;;;;5024703;28;21048;-82
2024/01/22 07:36:07;;;;;;;;;;;9.90;99.90;;;;;;5019617;28;20049;-82
2024/01/22 07:38:41;;;;;;;0.40;0.40;;;9.90;99.90;;;;;;5030878;28;19993;-82
2024/01/22 07:41:08;;;;;;;0.50;0.50;;;10.00;99.90;;;;;;5048161;28;20490;-82
2024/01/22 07:43:34;;;;;;;3.03;1.35;;;10.00;99.90;;;;;;5047902;28;20064;-80
2024/01/22 07:46:00;;;;;;;0.32;0.32;;;10.00;99.90;;;;;;5046815;28;20037;-80
2024/01/22 07:48:27;;;;;;;0.40;0.40;;;10.00;99.90;;;;;;5004872;28;20105;-81
2024/01/22 07:50:52;;;;;;;0.73;0.73;;;10.00;99.90;;;;;;4944940;28;20257;-83
2024/01/22 07:53:18;;;;;;;8.68;1.02;;;10.00;99.90;;;;;;4948839;28;20072;-88
2024/01/22 07:55:45;;;;;;;1.05;1.05;;;9.90;99.90;;;;;;5010352;28;20108;-84
2024/01/22 07:58:14;;;;;;;0.40;0.40;;;9.80;99.90;;;;;;5008554;28;20041;-90
2024/01/22 08:00:48;;;;;;;0.40;0.40;;;9.70;99.90;;;;;;5013013;28;20053;-88
2024/01/22 08:03:22;;;;;;;1.08;1.08;;;9.50;99.90;;;;;;4993951;28;20201;-89
2024/01/22 08:05:48;;;;;;;0.80;0.80;;;9.40;99.90;;;;;;5007763;28;20068;-88
2024/01/22 08:08:14;;;;;;;0.55;0.55;;;9.30;99.90;;;;;;5015017;28;20462;-87
2024/01/22 08:10:41;;;;;;;0.50;0.50;;;9.30;99.90;;;;;;5007032;28;20048;-86
2024/01/22 08:13:15;;;;;;;1.07;1.03;;;9.20;99.90;;;;;;4947587;28;20053;-87
2024/01/22 08:15:41;;;;;;;1.58;1.48;;;9.30;99.90;;;;;;4972378;28;20522;-86
2024/01/22 08:18:07;;;;;;;0.70;0.70;;;9.20;99.90;;;;;;5013951;28;20082;-89
2024/01/22 08:20:33;;;;;;;0.43;0.43;;;9.20;99.90;;;;;;4995714;28;20038;-86
2024/01/22 08:23:00;;;;;;;0.60;0.60;;;9.00;99.90;;;;;;4997796;28;20034;-89
2024/01/22 08:25:31;;;;;;;0.50;0.50;;;9.10;99.90;;;;;;5001677;28;20140;-82
2024/01/22 08:27:58;;;;;;;0.60;0.60;;;9.20;99.90;;;;;;5001197;28;20526;-85
2024/01/22 08:30:25;;;;;;;0.45;0.45;;;9.10;99.90;;;;;;4976716;28;20399;-83
2024/01/22 08:32:51;;;;;;;0.40;0.40;;;9.10;99.90;;;;;;4961028;28;20041;-86
2024/01/22 08:35:17;;;;;;;;;;;9.10;99.90;;;;;;4991231;28;20054;-85
2024/01/22 08:37:50;;;;;;;0.50;0.50;;;9.10;99.90;;;;;;4992490;28;20324;-85
2024/01/22 08:40:21;;;;;;;0.60;0.60;;;9.10;99.90;;;;;;4971199;28;20104;-83
2024/01/22 08:42:50;;;;;;;0.40;0.40;;;9.10;99.90;;;;;;5005307;28;20057;-82
2024/01/22 08:45:19;;;;;;;0.70;0.70;;;9.10;99.90;;;;;;5004347;28;20082;-82
2024/01/22 08:47:47;;;;;;;0.50;0.50;;;9.00;99.90;;;;;;4998554;28;20100;-84
2024/01/22 08:50:25;;;;;;;0.40;0.40;;;9.20;99.90;;;;;;5021857;28;20089;-80
2024/01/22 08:53:01;;;;;;;0.50;0.50;;;8.90;99.90;;;;;;5025273;28;20084;-82
2024/01/22 08:55:27;;;;;;;0.73;0.73;;;8.90;99.90;;;;;;5025800;28;20122;-82
2024/01/22 08:57:56;;;;;;;2.10;1.58;;;8.90;99.90;;;;;;5025251;28;20518;-81
2024/01/22 09:00:24;;;;;;;4.80;1.33;;;8.90;99.90;;;;;;5024065;28;20053;-83
2024/01/22 09:02:50;;;;;;;0.60;0.60;;;8.90;99.90;;;;;;5025354;28;20087;-82
2024/01/22 09:05:19;;;;;;;0.30;0.30;;;8.90;99.90;;;;;;5024262;28;20033;-83
2024/01/22 09:07:48;;;;;;;0.40;0.40;;;8.90;99.90;;;;;;5024181;28;20042;-82
2024/01/22 09:10:17;;;;;;;0.82;0.82;;;8.90;99.90;;;;;;5027499;28;20446;-82
2024/01/22 09:12:45;;;;;;;0.50;0.50;;;8.90;99.90;;;;;;5028857;28;20495;-82
2024/01/22 09:15:17;;;;;;;0.73;0.73;;;8.90;99.90;;;;;;5028054;28;20105;-84
2024/01/22 09:17:49;;;;;;;0.50;0.50;;;9.00;99.90;;;;;;5032034;28;20053;-84
2024/01/22 09:20:16;;;;;;;0.57;0.57;;;9.00;99.90;;;;;;5014677;28;20053;-83
2024/01/22 09:22:41;;;;;;;1.23;1.23;;;9.10;99.90;;;;;;5031091;28;20083;-84
2024/01/22 09:25:14;;;;;;;0.55;0.55;;;9.10;99.90;;;;;;5009330;28;20486;-84
2024/01/22 09:27:42;;;;;;;0.30;0.30;;;9.10;99.90;;;;;;5032531;28;20394;-81
2024/01/22 09:30:08;;;;;;;0.47;0.47;;;9.10;99.90;;;;;;5025926;28;20037;-82
2024/01/22 09:32:45;;;;;;;15.90;1.05;;;9.10;99.90;;;;;;5030774;28;20075;-81
2024/01/22 09:35:23;;;;;;;3.08;2.80;;;9.00;99.90;;;;;;5032556;28;20185;-83
2024/01/22 09:38:01;;;;;;;16.20;1.55;;;9.10;99.90;;;;;;5034769;28;20053;-83
2024/01/22 09:40:35;;;;;;;1.27;1.27;;;9.10;99.90;;;;;;5034039;28;20489;-82
2024/01/22 09:43:07;;;;;;;0.40;0.40;;;9.20;99.90;;;;;;5030811;28;20494;-82
2024/01/22 09:45:36;;;;;;;2.08;1.98;;;9.20;99.90;;;;;;5025737;28;20048;-83
2024/01/22 09:48:03;;;;;;;1.95;1.85;;;9.20;99.90;;;;;;5042767;28;20057;-82
2024/01/22 09:50:29;;;;;;;0.35;0.35;;;9.20;99.90;;;;;;4994280;28;20569;-80
2024/01/22 09:53:01;;;;;;;0.85;0.85;;;9.20;99.90;;;;;;5033006;28;20049;-83
2024/01/22 09:55:44;;;;;;;0.40;0.40;;;9.10;99.90;;;;;;5057662;28;21651;-81
2024/01/22 09:58:18;;;;;;;0.45;0.45;;;9.10;99.90;;;;;;5027448;28;20049;-80
2024/01/22 10:00:52;;;;;;;1.27;1.15;;;9.10;99.90;;;;;;4997404;28;20377;-81
2024/01/22 10:03:17;;;;;;;0.40;0.40;;;9.20;99.90;;;;;;4967884;28;20593;-81
2024/01/22 10:05:49;;;;;;;1.05;1.05;;;9.20;99.90;;;;;;4979124;28;20510;-80
2024/01/22 10:08:21;;;;;;;0.40;0.40;;;9.30;99.90;;;;;;4901820;28;20504;-83
2024/01/22 10:10:53;;;;;;;0.85;0.85;;;9.30;99.90;;;;;;4943682;28;20057;-82
2024/01/22 10:13:19;;;;;;;0.40;0.40;;;9.40;99.90;;;;;;4934781;28;20060;-83
2024/01/22 10:15:48;;;;;;;0.70;0.70;;;9.50;99.90;;;;;;5010788;28;20045;-82
2024/01/22 10:18:18;;;;;;;0.57;0.57;;;9.50;99.90;;;;;;5022807;28;20091;-81
2024/01/22 10:20:46;;;;;;;0.50;0.50;;;9.50;99.90;;;;;;5010396;28;20081;-83
2024/01/22 10:23:27;;;;;;;3.53;2.53;;;8.80;99.90;;;;;;5049939;28;20071;-82
2024/01/22 10:26:06;;;;;;;0.93;0.93;;;9.50;99.90;;;;;;5032132;28;20518;-84
2024/01/22 10:28:36;;;;;;;0.47;0.47;;;9.60;99.90;;;;;;5043943;28;20147;-82
2024/01/22 10:31:03;;;;;;;0.28;0.28;;;9.50;99.90;;;;;;5049885;28;20405;-81
2024/01/22 10:33:30;;;;;;;0.93;0.93;;;8.90;99.90;;;;;;5039791;28;20049;-80
2024/01/22 10:35:57;;;;;;;0.40;0.40;;;9.50;99.90;;;;;;5046923;28;20074;-83
2024/01/22 10:38:24;;;;;;;0.40;0.40;;;9.50;99.90;;;;;;5045777;28;20060;-81
2024/01/22 10:40:51;;;;;;;1.48;1.42;;;9.50;99.90;;;;;;5001528;28;20124;-80
2024/01/22 10:43:33;;;;;;;0.98;0.98;;;9.50;99.90;;;;;;4995993;28;20781;-81
2024/01/22 10:46:04;;;;;;;0.55;0.55;;;9.50;99.90;;;;;;4983624;28;20045;-84
2024/01/22 10:48:29;;;;;;;1.20;1.20;;;9.50;99.90;;;;;;4908825;28;20075;-82
2024/01/22 10:50:55;;;;;;;0.40;0.40;;;9.60;99.90;;;;;;5033714;28;20495;-81
2024/01/22 10:53:21;;;;;;;1.35;1.35;;;9.60;99.90;;;;;;5042882;28;20772;-82
2024/01/22 10:56:14;;;;;;;0.50;0.50;;;9.60;99.90;;;;;;5010588;28;20048;-81
2024/01/22 10:58:41;;;;;;;0.85;0.85;;;9.60;99.90;;;;;;5006965;28;20486;-83
2024/01/22 11:01:19;;;;;;;0.52;0.52;;;9.60;99.90;;;;;;5025165;28;20041;-83
2024/01/22 11:03:51;;;;;;;0.50;0.50;;;9.70;99.90;;;;;;5027076;28;20102;-82
2024/01/22 11:06:21;;;;;;;0.80;0.80;;;9.70;99.90;;;;;;4942480;28;20304;-83
2024/01/22 11:08:52;;;;;;;0.47;0.47;;;9.70;99.90;;;;;;5013818;28;20049;-83
2024/01/22 11:11:30;;;;;;;2.15;2.05;;;9.80;99.90;;;;;;5038706;28;20080;-82
2024/01/22 11:14:01;;;;;;;0.30;0.30;;;9.70;99.90;;;;;;5052558;28;20040;-85
2024/01/22 11:16:38;;;;;;;1.05;0.93;;;9.80;99.90;;;;;;5002415;28;20052;-82
2024/01/22 11:19:07;;;;;;;5.10;4.70;;;9.80;99.90;;;;;;4941666;28;20047;-85
2024/01/22 11:21:42;;;;;;;0.52;0.52;;;9.90;99.90;;;;;;5040973;28;20059;-83
2024/01/22 11:24:19;;;;;;;0.40;0.40;;;9.90;99.90;;;;;;5038945;28;20036;-83
2024/01/22 11:26:51;;;;;;;0.40;0.40;;;10.00;99.90;;;;;;5027616;28;20132;-85
2024/01/22 11:29:27;;;;;;;1.05;1.05;;;10.00;99.90;;;;;;5027060;28;20047;-83
2024/01/22 11:32:25;;;;;;;1.55;0.60;;;9.90;99.90;;;;;;5044053;28;20052;-82
2024/01/22 11:34:57;;;;;;;0.30;0.30;;;9.90;99.90;;;;;;5011694;28;20457;-85
2024/01/22 11:37:41;;;;;;;0.68;0.68;;;9.90;99.90;;;;;;5019781;28;20060;-84
2024/01/22 11:40:47;;;;;;;0.45;0.45;;;9.90;99.90;;;;;;5044774;28;20185;-84
2024/01/22 11:43:17;;;;;;;0.88;0.88;;;9.90;99.90;;;;;;5047207;28;20045;-87
2024/01/22 11:46:00;;;;;;;0.93;0.88;;;9.90;99.90;;;;;;5017435;28;20067;-85
2024/01/22 11:48:27;;;;;;;;;;;9.90;99.90;;;;;;5030253;28;20216;-84
2024/01/22 11:51:04;;;;;;;0.40;0.40;;;10.00;99.90;;;;;;5029733;28;20334;-83
2024/01/22 11:53:32;;;;;;;0.30;0.30;;;10.00;99.90;;;;;;5036705;28;20079;-85
2024/01/22 11:56:05;;;;;;;0.30;0.30;;;10.10;99.90;;;;;;5029754;28;20110;-82
2024/01/22 11:58:34;;;;;;;0.40;0.40;;;10.00;99.90;;;;;;5008350;28;20077;-83
2024/01/22 12:01:08;;;;;;;0.40;0.40;;;10.00;99.90;;;;;;5030012;28;20052;-82
2024/01/22 12:03:37;;;;;;;0.40;0.40;;;10.00;99.90;;;;;;5023564;28;20033;-83
2024/01/22 12:06:08;;;;;;;0.65;0.65;;;10.00;99.90;;;;;;5024352;28;20053;-82
2024/01/22 12:08:55;;;;;;;0.70;0.70;;;10.00;99.90;;;;;;5012967;28;20072;-79
2024/01/22 12:11:24;;;;;;;0.50;0.50;;;10.00;99.90;;;;;;5024775;28;20330;-83
2024/01/22 12:13:50;;;;;;;2.65;2.47;;;10.00;99.90;;;;;;4990845;28;20056;-80
2024/01/22 12:16:18;;;;;;;0.30;0.30;;;10.00;99.90;;;;;;5006058;28;20052;-83
2024/01/22 12:18:54;;;;;;;0.40;0.40;;;10.00;99.90;;;;;;5028022;28;20107;-83
2024/01/22 12:21:20;;;;;;;0.63;0.63;;;10.00;99.90;;;;;;5021838;28;20045;-83
2024/01/22 12:23:47;;;;;;;1.23;1.20;;;10.00;99.90;;;;;;5024436;28;20049;-83
2024/01/22 12:26:24;;;;;;;1.10;1.10;;;9.90;99.90;;;;;;5008054;28;20046;-84
2024/01/22 12:28:51;;;;;;;0.55;0.55;;;9.90;99.90;;;;;;5025832;28;20384;-84
2024/01/22 12:31:29;;;;;;;2.40;2.20;;;10.00;99.90;;;;;;5009681;28;20041;-83
2024/01/22 12:34:10;;;;;;;0.30;0.30;;;10.00;99.90;;;;;;5002740;28;20120;-83
2024/01/22 12:36:55;;;;;;;0.50;0.50;;;10.00;99.90;;;;;;5012520;28;20122;-82
2024/01/22 12:39:21;;;;;;;7.07;3.80;;;10.00;99.90;;;;;;5025506;28;20478;-83
2024/01/22 12:41:52;;;;;;;3.92;3.20;;;10.00;99.90;;;;;;5026386;28;20581;-83
2024/01/22 12:44:21;;;;;;;0.40;0.40;;;10.00;99.90;;;;;;5023838;28;20107;-82
2024/01/22 12:46:48;;;;;;;0.40;0.40;;;9.90;99.90;;;;;;5024603;28;20080;-82
2024/01/22 12:49:16;;;;;;;2.75;1.85;;;9.90;99.90;;;;;;5005496;28;20045;-81
2024/01/22 12:51:50;;;;;;;0.45;0.45;;;9.90;99.90;;;;;;5026482;28;20052;-83
2024/01/22 12:54:16;;;;;;;0.57;0.50;;;9.90;99.90;;;;;;5026521;28;20037;-82
2024/01/22 12:56:42;;;;;;;0.50;0.50;;;9.90;99.90;;;;;;5027149;28;20547;-84
2024/01/22 12:59:08;;;;;;;;;;;9.90;99.90;;;;;;5023264;28;20065;-81
2024/01/22 13:01:39;;;;;;;0.55;0.55;;;9.90;99.90;;;;;;5024568;28;20174;-84
2024/01/22 13:04:05;;;;;;;0.63;0.60;;;9.90;99.90;;;;;;4992343;28;20049;-83
2024/01/22 13:06:31;;;;;;;0.32;0.32;;;9.90;99.90;;;;;;5020224;28;20057;-83
2024/01/22 13:08:59;;;;;;;5.47;3.05;;;9.90;99.90;;;;;;5006614;28;20049;-83